Nisshoumaru — JD3093 — position and weather

sailwx.info

Track history (hours):
 
Tides and Currents Weather Stations Pressure Air Temp Water Temp Dewpoint Dewpoint Depression Visibility Wind Speed Wind Dir Waves Ship Positions

Nisshoumaru

Last reported at 2014-Jul-31 23:16 UTC. Time now 2014-Aug-01 07:57 UTC.
Position N 34°45' E 139°09'.

Length 76 m; draft 4 m.

Type: Cargo ship. MMSI: 431001549.

Date/timePositionNaut miles runAvg speedWind from/ knotsBaromVisibWave heightAir tempDewpointWater temp
2014-Jul-31 23:16N 34°45' E 139°09'1512.8
2014-Jul-31 22:05N 34°57' E 139°20'712.8
2014-Jul-31 21:33N 35°00' E 139°27'1312.9
2014-Jul-31 20:33N 35°07' E 139°41'1110.9
2014-Jul-31 19:34N 35°17' E 139°45'8 8.2
2014-Jul-31 18:33N 35°25' E 139°48'5 5.4
2014-Jul-31 17:33N 35°22' E 139°54'0 0.0
2014-Jul-31 16:33N 35°22' E 139°54'0 0.0
2014-Jul-31 15:33N 35°22' E 139°54'0 0.0
2014-Jul-31 14:33N 35°22' E 139°54'0 0.0
2014-Jul-31 13:33N 35°22' E 139°54'0 0.1
2014-Jul-31 12:33N 35°22' E 139°54'0 0.0
2014-Jul-31 11:33N 35°22' E 139°54'0 0.0
2014-Jul-31 10:33N 35°22' E 139°54'0 0.0
2014-Jul-31 09:33N 35°22' E 139°54'0 0.0
2014-Jul-31 08:33N 35°22' E 139°54'0 0.0
2014-Jul-31 07:33N 35°22' E 139°54'0 0.0
2014-Jul-31 06:33N 35°22' E 139°54'0 0.1
2014-Jul-31 05:33N 35°22' E 139°54'0 0.0
2014-Jul-31 04:33N 35°22' E 139°54'0 0.0
2014-Jul-31 03:33N 35°22' E 139°54'0 0.0
2014-Jul-31 02:33N 35°22' E 139°54'0 0.0
2014-Jul-31 01:33N 35°22' E 139°54'0 0.0
2014-Jul-31 00:33N 35°22' E 139°54'0 0.0
2014-Jul-30 23:33N 35°22' E 139°54'0 0.0
2014-Jul-30 22:33N 35°22' E 139°54'0 0.0
2014-Jul-30 21:33N 35°22' E 139°54'0 0.0
2014-Jul-30 20:33N 35°22' E 139°54'0 0.0
2014-Jul-30 19:33N 35°22' E 139°54'0 0.0
2014-Jul-30 18:33N 35°22' E 139°54'0 0.0
2014-Jul-30 17:33N 35°22' E 139°54'0 0.0
2014-Jul-30 16:33N 35°22' E 139°54'0 0.0
2014-Jul-30 15:33N 35°22' E 139°54'0 0.0
2014-Jul-30 14:33N 35°22' E 139°54'0 0.0
2014-Jul-30 13:33N 35°22' E 139°54'0 0.0
2014-Jul-30 12:33N 35°22' E 139°54'0 0.0
2014-Jul-30 11:33N 35°22' E 139°54'0 0.0
2014-Jul-30 10:33N 35°22' E 139°54'0 0.0
2014-Jul-30 09:33N 35°22' E 139°54'0 0.0
2014-Jul-30 08:33N 35°22' E 139°54'0 0.0
2014-Jul-30 07:33N 35°22' E 139°54'0 0.0
2014-Jul-30 06:33N 35°22' E 139°54'8 8.0
2014-Jul-30 05:33N 35°29' E 139°51'9 8.8
2014-Jul-30 04:33N 35°38' E 139°48'0 0.1
2014-Jul-30 03:33N 35°38' E 139°48'0 0.1
2014-Jul-30 02:33N 35°38' E 139°48'0 0.1
2014-Jul-30 01:33N 35°38' E 139°48'0 0.0
2014-Jul-30 00:33N 35°38' E 139°48'0 0.0
2014-Jul-29 23:33N 35°38' E 139°48'0 0.0
2014-Jul-29 22:33N 35°38' E 139°48'0 0.0
2014-Jul-29 21:33N 35°38' E 139°48'0 0.0
2014-Jul-29 20:34N 35°38' E 139°48'0 0.0
2014-Jul-29 19:34N 35°38' E 139°48'0 0.0
2014-Jul-29 18:34N 35°38' E 139°48'0 0.0
2014-Jul-29 17:34N 35°38' E 139°48'0 0.0
2014-Jul-29 16:33N 35°38' E 139°48'0 0.0
2014-Jul-29 15:34N 35°38' E 139°48'0 0.0
2014-Jul-29 14:33N 35°38' E 139°48'0 0.0
2014-Jul-29 13:34N 35°38' E 139°48'0 0.0
2014-Jul-29 12:34N 35°38' E 139°48'0 0.0
2014-Jul-29 11:34N 35°38' E 139°48'0 0.0
2014-Jul-29 10:33N 35°38' E 139°48'0 0.0
2014-Jul-29 09:33N 35°38' E 139°48'2 1.7
2014-Jul-29 08:34N 35°37' E 139°50'1010.5
2014-Jul-29 07:34N 35°35' E 140°02'3 2.9
2014-Jul-29 06:34N 35°37' E 140°05'0 0.0
2014-Jul-29 05:34N 35°37' E 140°05'0 0.0
2014-Jul-29 04:34N 35°37' E 140°05'0 0.0
2014-Jul-29 03:33N 35°37' E 140°05'0 0.0
2014-Jul-29 02:33N 35°37' E 140°05'1 1.4
2014-Jul-29 01:34N 35°35' E 140°04'8 7.9
2014-Jul-29 00:34N 35°41' E 139°57'0 0.0
2014-Jul-28 23:33N 35°41' E 139°57'2 1.8
2014-Jul-28 22:33N 35°39' E 139°58'3 2.6
2014-Jul-28 21:34N 35°37' E 139°58'0 0.0
2014-Jul-28 20:33N 35°37' E 139°58'0 0.0
2014-Jul-28 19:33N 35°37' E 139°58'0 0.0
2014-Jul-28 18:34N 35°37' E 139°58'0 0.0
2014-Jul-28 17:33N 35°37' E 139°58'0 0.0
2014-Jul-28 16:34N 35°37' E 139°58'0 0.0
2014-Jul-28 15:33N 35°37' E 139°58'0 0.0
2014-Jul-28 14:34N 35°37' E 139°58'10 9.5
2014-Jul-28 13:34N 35°29' E 139°51'1211.7
2014-Jul-28 12:33N 35°18' E 139°44'1111.5
2014-Jul-28 11:33N 35°07' E 139°46'1312.5
2014-Jul-28 10:33N 34°54' E 139°47'1010.1
2014-Jul-28 09:31N 34°54' E 139°59'9 9.5
2014-Jul-28 08:32N 34°60' E 140°09'2110.0
2014-Jul-28 06:24N 35°13' E 140°29'1112.4
2014-Jul-28 05:33N 35°22' E 140°37'1412.3
2014-Jul-28 04:25N 35°33' E 140°47'  
Track history (hours):
 
Tides and Currents Weather Stations Pressure Air Temp Water Temp Dewpoint Dewpoint Depression Visibility Wind Speed Wind Dir Waves Ship Positions

Nisshoumaru

Last reported at 2014-Jul-31 23:16 UTC. Time now 2014-Aug-01 07:57 UTC.
Position N 34°45' E 139°09'.

Length 76 m; draft 4 m.

Type: Cargo ship. MMSI: 431001549.

Date/timePositionNaut miles runAvg speedWind from/ knotsBaromVisibWave heightAir tempDewpointWater temp
2014-Jul-31 23:16N 34°45' E 139°09'1512.8
2014-Jul-31 22:05N 34°57' E 139°20'712.8
2014-Jul-31 21:33N 35°00' E 139°27'1312.9
2014-Jul-31 20:33N 35°07' E 139°41'1110.9
2014-Jul-31 19:34N 35°17' E 139°45'8 8.2
2014-Jul-31 18:33N 35°25' E 139°48'5 5.4
2014-Jul-31 17:33N 35°22' E 139°54'0 0.0
2014-Jul-31 16:33N 35°22' E 139°54'0 0.0
2014-Jul-31 15:33N 35°22' E 139°54'0 0.0
2014-Jul-31 14:33N 35°22' E 139°54'0 0.0
2014-Jul-31 13:33N 35°22' E 139°54'0 0.1
2014-Jul-31 12:33N 35°22' E 139°54'0 0.0
2014-Jul-31 11:33N 35°22' E 139°54'0 0.0
2014-Jul-31 10:33N 35°22' E 139°54'0 0.0
2014-Jul-31 09:33N 35°22' E 139°54'0 0.0
2014-Jul-31 08:33N 35°22' E 139°54'0 0.0
2014-Jul-31 07:33N 35°22' E 139°54'0 0.0
2014-Jul-31 06:33N 35°22' E 139°54'0 0.1
2014-Jul-31 05:33N 35°22' E 139°54'0 0.0
2014-Jul-31 04:33N 35°22' E 139°54'0 0.0
2014-Jul-31 03:33N 35°22' E 139°54'0 0.0
2014-Jul-31 02:33N 35°22' E 139°54'0 0.0
2014-Jul-31 01:33N 35°22' E 139°54'0 0.0
2014-Jul-31 00:33N 35°22' E 139°54'0 0.0
2014-Jul-30 23:33N 35°22' E 139°54'0 0.0
2014-Jul-30 22:33N 35°22' E 139°54'0 0.0
2014-Jul-30 21:33N 35°22' E 139°54'0 0.0
2014-Jul-30 20:33N 35°22' E 139°54'0 0.0
2014-Jul-30 19:33N 35°22' E 139°54'0 0.0
2014-Jul-30 18:33N 35°22' E 139°54'0 0.0
2014-Jul-30 17:33N 35°22' E 139°54'0 0.0
2014-Jul-30 16:33N 35°22' E 139°54'0 0.0
2014-Jul-30 15:33N 35°22' E 139°54'0 0.0
2014-Jul-30 14:33N 35°22' E 139°54'0 0.0
2014-Jul-30 13:33N 35°22' E 139°54'0 0.0
2014-Jul-30 12:33N 35°22' E 139°54'0 0.0
2014-Jul-30 11:33N 35°22' E 139°54'0 0.0
2014-Jul-30 10:33N 35°22' E 139°54'0 0.0
2014-Jul-30 09:33N 35°22' E 139°54'0 0.0
2014-Jul-30 08:33N 35°22' E 139°54'0 0.0
2014-Jul-30 07:33N 35°22' E 139°54'0 0.0
2014-Jul-30 06:33N 35°22' E 139°54'8 8.0
2014-Jul-30 05:33N 35°29' E 139°51'9 8.8
2014-Jul-30 04:33N 35°38' E 139°48'0 0.1
2014-Jul-30 03:33N 35°38' E 139°48'0 0.1
2014-Jul-30 02:33N 35°38' E 139°48'0 0.1
2014-Jul-30 01:33N 35°38' E 139°48'0 0.0
2014-Jul-30 00:33N 35°38' E 139°48'0 0.0
2014-Jul-29 23:33N 35°38' E 139°48'0 0.0
2014-Jul-29 22:33N 35°38' E 139°48'0 0.0
2014-Jul-29 21:33N 35°38' E 139°48'0 0.0
2014-Jul-29 20:34N 35°38' E 139°48'0 0.0
2014-Jul-29 19:34N 35°38' E 139°48'0 0.0
2014-Jul-29 18:34N 35°38' E 139°48'0 0.0
2014-Jul-29 17:34N 35°38' E 139°48'0 0.0
2014-Jul-29 16:33N 35°38' E 139°48'0 0.0
2014-Jul-29 15:34N 35°38' E 139°48'0 0.0
2014-Jul-29 14:33N 35°38' E 139°48'0 0.0
2014-Jul-29 13:34N 35°38' E 139°48'0 0.0
2014-Jul-29 12:34N 35°38' E 139°48'0 0.0
2014-Jul-29 11:34N 35°38' E 139°48'0 0.0
2014-Jul-29 10:33N 35°38' E 139°48'0 0.0
2014-Jul-29 09:33N 35°38' E 139°48'2 1.7
2014-Jul-29 08:34N 35°37' E 139°50'1010.5
2014-Jul-29 07:34N 35°35' E 140°02'3 2.9
2014-Jul-29 06:34N 35°37' E 140°05'0 0.0
2014-Jul-29 05:34N 35°37' E 140°05'0 0.0
2014-Jul-29 04:34N 35°37' E 140°05'0 0.0
2014-Jul-29 03:33N 35°37' E 140°05'0 0.0
2014-Jul-29 02:33N 35°37' E 140°05'1 1.4
2014-Jul-29 01:34N 35°35' E 140°04'8 7.9
2014-Jul-29 00:34N 35°41' E 139°57'0 0.0
2014-Jul-28 23:33N 35°41' E 139°57'2 1.8
2014-Jul-28 22:33N 35°39' E 139°58'3 2.6
2014-Jul-28 21:34N 35°37' E 139°58'0 0.0
2014-Jul-28 20:33N 35°37' E 139°58'0 0.0
2014-Jul-28 19:33N 35°37' E 139°58'0 0.0
2014-Jul-28 18:34N 35°37' E 139°58'0 0.0
2014-Jul-28 17:33N 35°37' E 139°58'0 0.0
2014-Jul-28 16:34N 35°37' E 139°58'0 0.0
2014-Jul-28 15:33N 35°37' E 139°58'0 0.0
2014-Jul-28 14:34N 35°37' E 139°58'10 9.5
2014-Jul-28 13:34N 35°29' E 139°51'1211.7
2014-Jul-28 12:33N 35°18' E 139°44'1111.5
2014-Jul-28 11:33N 35°07' E 139°46'1312.5
2014-Jul-28 10:33N 34°54' E 139°47'1010.1
2014-Jul-28 09:31N 34°54' E 139°59'9 9.5
2014-Jul-28 08:32N 34°60' E 140°09'2110.0
2014-Jul-28 06:24N 35°13' E 140°29'1112.4
2014-Jul-28 05:33N 35°22' E 140°37'1412.3
2014-Jul-28 04:25N 35°33' E 140°47'  

Dump ship's entire track history